Cascade, Virginia
Current Conditions -  °F | °C
As of 9:55 PM on Friday 21 Nov 2014 (Local Time) from KSIF Reporting Station
Clear Clear  
Wind Chill: 22°   Ceiling: Unl
Heat Index: 22°   Visibility: 10mi
Dew Point: 16°   Wind: 0mph
Humidity: 78%   Direction: NA
Pressure: 30.52"   Gusts: NA
Location:  36.57°N, 79.67°W
Report Text: KSIF 220255Z AUTO 00000KT 10SM CLR M06/M09 A3052 RMK AO2 T10561088
Loading
Personal Weather Stations






























Interactive Weather Map New forecast layout! Learn more

10-Day Weather Forecast

Advertisements
Track Severe Weather on mobile